Terminal Aerodrome Forecast
Issued by NWS

Home | Current Version | Previous Version | Graphics & Text | Print | Product List | Glossary On
Versions: 1 2 3 4 5 6 7 8 9 10 11 12 13 14 15 16 17 18 19 20 21 22 23 24 25 26 27 28 29 30 31 32 33 34 35 36 37 38 39 40 41 42 43 44 45 46 47 48 49 50
000
FTUS43 KLOT 281700 RRA
TAFGYY
TAF
KGYY 281742Z 2818/2918 04009KT P6SM SCT200
     FM282300 09010KT P6SM SCT080 BKN200
     FM290500 13007KT P6SM VCSH SCT050 BKN080
     FM290900 16007KT P6SM SHRA OVC050 PROB30 2910/2913 TSRA
      OVC040CB
     FM291400 19008KT P6SM BKN050
     FM291700 19013G20KT P6SM SCT060 BKN200=

USA.gov is the U.S. government's official web portal to all federal, state and local government web resources and services.